Time;durP1;ratioP1;P1;durP2;ratioP2;P2;SDS_P1;SDS_P2;PMS_P1;PMS_P2;Temp;Humidity;BMP_temperature;BMP_pressure;BME280_temperature;BME280_humidity;BME280_pressure;Samples;Min_cycle;Max_cycle;Signal;HPM_P1;HPM_P2
2022/11/19 00:02:18;;;;;;;17.38;11.77;;;-2.50;1.00;;;;;;5108904;27;20242;-75
2022/11/19 00:04:45;;;;;;;21.05;13.65;;;-2.50;1.00;;;;;;5114715;28;20249;-76
2022/11/19 00:07:14;;;;;;;16.80;11.68;;;-2.50;1.00;;;;;;5117566;27;20231;-77
2022/11/19 00:09:42;;;;;;;19.80;11.15;;;-2.50;1.00;;;;;;5114917;27;20254;-76
2022/11/19 00:15:02;;;;;;;14.68;10.10;;;-2.50;1.00;;;;;;5131329;28;20227;-77
2022/11/19 00:23:06;;;;;;;15.38;9.80;;;-2.60;1.00;;;;;;5769223;22;20227;-78
2022/11/19 00:25:36;;;;;;;16.38;11.02;;;-2.60;1.00;;;;;;5118876;27;20231;-77
2022/11/19 00:28:13;;;;;;;18.33;11.02;;;-2.60;1.00;;;;;;5100381;27;20330;-79
2022/11/19 00:30:54;;;;;;;18.17;10.70;;;-2.60;1.00;;;;;;5115119;27;20226;-78
2022/11/19 00:33:25;;;;;;;16.60;10.25;;;-2.60;1.00;;;;;;5083795;27;20236;-78
2022/11/19 00:35:55;;;;;;;15.80;10.45;;;-2.60;1.00;;;;;;5121125;27;20240;-77
2022/11/19 00:38:24;;;;;;;18.00;11.85;;;-2.60;1.00;;;;;;5114512;27;20243;-78
2022/11/19 00:40:52;;;;;;;20.13;10.68;;;-2.60;1.00;;;;;;5119569;27;20230;-78
2022/11/19 00:43:47;;;;;;;17.65;12.23;;;-2.60;1.00;;;;;;5121472;27;21139;-79
2022/11/19 00:46:14;;;;;;;20.08;12.70;;;-2.60;1.00;;;;;;5119592;27;20231;-78
2022/11/19 00:48:45;;;;;;;18.02;12.45;;;-2.60;1.00;;;;;;5101624;28;20253;-76
2022/11/19 00:51:13;;;;;;;19.75;11.90;;;-2.60;1.00;;;;;;5116976;27;20291;-76
2022/11/19 00:53:44;;;;;;;30.70;14.38;;;-2.60;1.00;;;;;;5120864;27;20203;-76
2022/11/19 00:56:13;;;;;;;21.52;13.60;;;-2.70;1.00;;;;;;5098062;27;20270;-77
2022/11/19 00:58:45;;;;;;;21.55;14.40;;;-2.70;1.00;;;;;;5120070;27;20223;-75
2022/11/19 01:01:13;;;;;;;20.73;14.23;;;-2.70;1.00;;;;;;5117271;27;20294;-77
2022/11/19 01:03:45;;;;;;;22.38;14.80;;;-2.60;1.00;;;;;;5105888;28;20254;-76
2022/11/19 01:06:13;;;;;;;22.95;13.90;;;-2.70;1.00;;;;;;5099398;27;20326;-76
2022/11/19 01:08:44;;;;;;;25.83;16.08;;;-2.70;1.00;;;;;;5119028;27;20215;-74
2022/11/19 01:11:13;;;;;;;21.60;16.27;;;-2.60;1.00;;;;;;5116545;27;20231;-75
2022/11/19 01:13:46;;;;;;;21.52;14.32;;;-2.60;1.00;;;;;;5122079;27;20218;-79
2022/11/19 01:16:16;;;;;;;20.75;14.63;;;-2.60;1.00;;;;;;5107279;27;20261;-79
2022/11/19 01:18:47;;;;;;;19.58;12.95;;;-2.60;1.00;;;;;;5109832;28;20236;-76
2022/11/19 01:21:15;;;;;;;21.77;14.65;;;-2.50;1.00;;;;;;5107149;27;20235;-76
2022/11/19 01:23:45;;;;;;;22.58;14.95;;;-2.60;1.00;;;;;;5110567;27;20224;-76
2022/11/19 01:26:13;;;;;;;20.33;14.45;;;-2.60;1.00;;;;;;5112501;27;20244;-78
2022/11/19 01:28:56;;;;;;;25.27;15.48;;;-2.60;1.00;;;;;;5113117;28;20299;-80
2022/11/19 01:31:26;;;;;;;21.90;14.50;;;-2.60;1.00;;;;;;5106801;27;20215;-80
2022/11/19 01:33:54;;;;;;;20.08;14.95;;;-2.60;1.00;;;;;;5114355;27;20231;-77
2022/11/19 01:36:26;;;;;;;26.30;16.42;;;-2.60;1.00;;;;;;5112069;27;20709;-78
2022/11/19 01:38:53;;;;;;;30.20;20.92;;;-2.60;1.00;;;;;;5106583;27;20258;-78
2022/11/19 01:41:26;;;;;;;25.08;17.15;;;-2.60;1.00;;;;;;5119286;27;20220;-78
2022/11/19 01:43:57;;;;;;;24.13;15.85;;;-2.60;1.00;;;;;;5116617;27;20240;-77
2022/11/19 01:46:28;;;;;;;22.42;15.07;;;-2.60;1.00;;;;;;5106930;27;20262;-74
2022/11/19 01:51:49;;;;;;;27.48;16.33;;;-2.70;1.00;;;;;;5107916;27;20261;-76
2022/11/19 01:54:27;;;;;;;21.20;15.55;;;-2.70;1.00;;;;;;5114990;27;20350;-77
2022/11/19 01:56:55;;;;;;;25.92;16.42;;;-2.70;1.00;;;;;;5104736;27;20329;-75
2022/11/19 01:59:29;;;;;;;23.95;14.50;;;-2.70;1.00;;;;;;5113841;27;20254;-75
2022/11/19 02:01:56;;;;;;;18.73;13.02;;;-2.70;1.00;;;;;;5109897;28;20326;-76
2022/11/19 02:04:25;;;;;;;19.55;13.98;;;-2.60;1.00;;;;;;5114078;27;20233;-76
2022/11/19 02:06:53;;;;;;;21.38;13.82;;;-2.60;1.00;;;;;;5117136;27;20376;-76
2022/11/19 02:09:26;;;;;;;21.90;13.90;;;-2.60;1.00;;;;;;5113654;27;20239;-77
2022/11/19 02:12:11;;;;;;;17.40;12.02;;;-2.70;1.00;;;;;;5111352;27;20239;-76
2022/11/19 02:15:10;;;;;;;16.90;12.20;;;-2.70;1.00;;;;;;5102539;28;20348;-76
2022/11/19 02:18:04;;;;;;;16.45;10.48;;;-2.60;1.00;;;;;;5103602;27;20289;-77
2022/11/19 02:20:46;;;;;;;18.25;10.88;;;-2.50;1.00;;;;;;5116693;27;20247;-77
2022/11/19 02:23:53;;;;;;;20.88;12.20;;;-2.10;1.00;;;;;;5112489;27;20602;-77
2022/11/19 02:26:57;;;;;;;17.33;11.30;;;-1.90;1.00;;;;;;5107839;27;20270;-75
2022/11/19 02:29:52;;;;;;;17.80;11.95;;;-2.00;1.00;;;;;;5108390;28;20235;-75
2022/11/19 02:32:30;;;;;;;20.17;13.18;;;-2.20;1.00;;;;;;5107066;27;20232;-76
2022/11/19 02:35:04;;;;;;;17.77;12.07;;;-2.30;1.00;;;;;;5093333;28;20236;-79
2022/11/19 02:37:34;;;;;;;19.60;12.00;;;-2.40;1.00;;;;;;5115100;27;20270;-78
2022/11/19 02:40:07;;;;;;;17.55;11.68;;;-2.50;1.00;;;;;;5105813;28;20258;-78
2022/11/19 02:42:44;;;;;;;18.35;11.95;;;-2.50;1.00;;;;;;5116400;27;20254;-79
2022/11/19 02:45:17;;;;;;;17.77;11.80;;;-2.50;1.00;;;;;;5105708;28;20235;-79
2022/11/19 02:47:49;;;;;;;19.75;11.70;;;-2.60;1.00;;;;;;5115587;28;21053;-78
2022/11/19 02:50:24;;;;;;;16.48;11.10;;;-2.60;1.00;;;;;;5106256;27;20243;-76
2022/11/19 02:52:51;;;;;;;17.95;11.98;;;-2.60;1.00;;;;;;5107287;27;20321;-77
2022/11/19 02:55:24;;;;;;;17.90;11.75;;;-2.60;1.00;;;;;;5114898;27;22056;-78
2022/11/19 02:57:58;;;;;;;17.83;11.77;;;-2.60;1.00;;;;;;5111619;27;20223;-76
2022/11/19 03:06:12;;;;;;;18.73;11.65;;;-2.70;1.00;;;;;;5113177;27;20220;-78
2022/11/19 03:08:40;;;;;;;23.38;12.20;;;-2.70;1.00;;;;;;5110213;27;20372;-77
2022/11/19 03:11:18;;;;;;;18.52;12.98;;;-2.70;1.00;;;;;;5097908;28;20332;-76
2022/11/19 03:16:43;;;;;;;18.27;12.30;;;-2.50;1.00;;;;;;5077439;28;20318;-76
2022/11/19 03:19:20;;;;;;;20.02;12.90;;;-2.50;1.00;;;;;;5106226;27;20239;-76
2022/11/19 03:21:54;;;;;;;18.52;12.80;;;-2.60;1.00;;;;;;5105452;27;20230;-76
2022/11/19 03:24:27;;;;;;;19.33;13.45;;;-2.60;1.00;;;;;;5108840;27;20266;-76
2022/11/19 03:26:59;;;;;;;19.95;12.38;;;-2.60;1.00;;;;;;5098302;27;21038;-76
2022/11/19 03:29:27;;;;;;;19.83;12.70;;;-2.60;1.00;;;;;;5098896;28;20271;-75
2022/11/19 03:32:00;;;;;;;19.02;12.65;;;-2.60;1.00;;;;;;5106159;27;20268;-75
2022/11/19 03:34:30;;;;;;;21.83;13.45;;;-2.60;1.00;;;;;;5097686;27;20330;-75
2022/11/19 03:37:01;;;;;;;19.70;11.95;;;-2.60;1.00;;;;;;5103451;27;20247;-76
2022/11/19 03:39:28;;;;;;;20.98;11.93;;;-2.60;1.00;;;;;;5101198;27;20283;-74
2022/11/19 03:41:57;;;;;;;20.33;12.15;;;-2.60;1.00;;;;;;5097470;27;20243;-76
2022/11/19 03:44:28;;;;;;;18.40;12.35;;;-2.50;1.00;;;;;;5099216;27;20288;-76
2022/11/19 03:47:01;;;;;;;17.48;11.77;;;-2.50;1.00;;;;;;5106245;27;20263;-76
2022/11/19 03:49:35;;;;;;;21.33;12.68;;;-2.50;1.00;;;;;;5108076;27;20237;-77
2022/11/19 03:52:07;;;;;;;20.17;12.52;;;-2.50;1.00;;;;;;5101713;28;20330;-75
2022/11/19 03:54:36;;;;;;;19.38;12.50;;;-2.50;1.00;;;;;;5106670;27;21017;-75
2022/11/19 03:57:07;;;;;;;18.70;12.43;;;-2.50;1.00;;;;;;5107437;28;21116;-75
2022/11/19 03:59:35;;;;;;;19.75;13.23;;;-2.50;1.00;;;;;;5105759;27;20237;-76
2022/11/19 04:02:06;;;;;;;21.13;12.30;;;-2.50;1.00;;;;;;5104748;28;20317;-76
2022/11/19 04:04:36;;;;;;;14.45;10.20;;;-2.50;1.00;;;;;;5105073;27;20625;-76
2022/11/19 04:07:06;;;;;;;18.10;11.82;;;-2.50;1.00;;;;;;5117502;28;20322;-77
2022/11/19 04:09:35;;;;;;;18.88;12.70;;;-2.50;1.00;;;;;;5122594;27;20251;-77
2022/11/19 04:12:06;;;;;;;17.45;10.30;;;-2.60;1.00;;;;;;5119259;27;20243;-75
2022/11/19 04:14:35;;;;;;;17.27;10.65;;;-2.60;1.00;;;;;;5118095;27;20335;-76
2022/11/19 04:17:13;;;;;;;21.45;11.60;;;-2.50;1.00;;;;;;5114499;27;20228;-77
2022/11/19 04:19:44;;;;;;;21.77;11.65;;;-2.50;1.00;;;;;;5121052;27;20227;-77
2022/11/19 04:22:14;;;;;;;15.15;9.90;;;-2.50;1.00;;;;;;5100660;27;20239;-77
2022/11/19 04:24:44;;;;;;;14.98;9.25;;;-2.40;1.00;;;;;;5123194;27;20235;-78
2022/11/19 04:27:15;;;;;;;14.55;8.77;;;-2.40;1.00;;;;;;5120574;27;20223;-78
2022/11/19 04:29:42;;;;;;;18.50;11.13;;;-2.40;1.00;;;;;;5115618;27;20230;-75
2022/11/19 04:32:10;;;;;;;16.92;10.18;;;-2.30;1.00;;;;;;5099415;27;20318;-76
2022/11/19 04:34:37;;;;;;;14.80;9.77;;;-2.40;1.00;;;;;;5106754;27;20717;-76
2022/11/19 04:37:04;;;;;;;18.23;11.02;;;-2.30;1.00;;;;;;5095458;28;20244;-75
2022/11/19 04:39:31;;;;;;;16.30;9.80;;;-2.30;1.00;;;;;;5110304;27;20272;-76
2022/11/19 04:42:01;;;;;;;16.38;9.30;;;-2.30;1.00;;;;;;5107825;27;20235;-76
2022/11/19 04:44:28;;;;;;;16.98;10.02;;;-2.30;1.00;;;;;;5118033;27;20239;-78
2022/11/19 04:46:59;;;;;;;16.30;10.20;;;-2.20;1.00;;;;;;5113692;27;20446;-78
2022/11/19 04:49:27;;;;;;;16.02;9.55;;;-2.20;1.00;;;;;;5111516;27;20247;-79
2022/11/19 04:51:59;;;;;;;17.20;10.02;;;-2.20;1.00;;;;;;5119630;27;20299;-77
2022/11/19 04:54:26;;;;;;;15.68;8.80;;;-2.20;1.00;;;;;;5112240;27;20236;-75
2022/11/19 04:56:55;;;;;;;14.15;9.73;;;-2.20;1.00;;;;;;5111248;28;20337;-76
2022/11/19 04:59:24;;;;;;;17.38;9.75;;;-2.20;1.00;;;;;;5101664;27;20353;-76
2022/11/19 05:01:51;;;;;;;16.02;10.02;;;-2.20;1.00;;;;;;5112035;27;20370;-78
2022/11/19 05:04:19;;;;;;;15.95;8.82;;;-2.20;1.00;;;;;;5114715;27;20247;-76
2022/11/19 05:06:47;;;;;;;16.48;8.57;;;-2.10;1.00;;;;;;5113684;27;20285;-76
2022/11/19 05:09:19;;;;;;;15.77;8.70;;;-2.10;1.00;;;;;;5107392;27;20230;-76
2022/11/19 05:11:46;;;;;;;15.13;9.10;;;-2.10;1.00;;;;;;5112805;27;20335;-77
2022/11/19 05:14:19;;;;;;;15.77;9.60;;;-2.20;1.00;;;;;;5109548;27;20734;-74
2022/11/19 05:16:46;;;;;;;19.50;9.50;;;-2.20;1.00;;;;;;5113307;27;21037;-76
2022/11/19 05:19:14;;;;;;;18.10;9.13;;;-2.20;1.00;;;;;;5098321;28;20263;-76
2022/11/19 05:21:41;;;;;;;17.90;9.48;;;-2.20;1.00;;;;;;5108304;27;20292;-76
2022/11/19 05:24:09;;;;;;;17.35;9.50;;;-2.20;1.00;;;;;;5107944;27;20346;-75
2022/11/19 05:26:36;;;;;;;16.98;9.65;;;-2.20;1.00;;;;;;5109807;27;20314;-76
2022/11/19 05:29:03;;;;;;;17.52;10.05;;;-2.10;1.00;;;;;;5108115;27;20265;-74
2022/11/19 05:31:30;;;;;;;15.70;9.45;;;-2.10;1.00;;;;;;5103192;28;20238;-77
2022/11/19 05:33:57;;;;;;;18.08;9.20;;;-2.00;1.00;;;;;;5100794;28;20267;-76
2022/11/19 05:36:24;;;;;;;16.20;8.80;;;-2.00;1.00;;;;;;5107393;28;20262;-77
2022/11/19 05:38:51;;;;;;;14.68;8.48;;;-1.90;1.00;;;;;;5104194;27;20238;-74
2022/11/19 05:41:19;;;;;;;12.88;7.57;;;-1.90;1.00;;;;;;5104986;27;20250;-75
2022/11/19 05:43:46;;;;;;;13.35;7.50;;;-1.90;1.00;;;;;;5104563;27;20726;-75
2022/11/19 05:46:13;;;;;;;14.65;8.55;;;-1.80;1.00;;;;;;5106750;27;20327;-76
2022/11/19 05:48:40;;;;;;;20.23;9.13;;;-1.80;1.00;;;;;;5110273;27;20310;-76
2022/11/19 05:51:07;;;;;;;13.80;8.88;;;-1.80;1.00;;;;;;5109479;27;20304;-76
2022/11/19 05:53:34;;;;;;;14.55;8.65;;;-1.80;1.00;;;;;;5110124;27;20242;-78
2022/11/19 05:56:01;;;;;;;13.38;8.98;;;-1.80;1.00;;;;;;5109984;27;21123;-74
2022/11/19 05:58:29;;;;;;;14.55;8.68;;;-1.80;1.00;;;;;;5106876;27;20958;-77
2022/11/19 06:00:58;;;;;;;16.17;9.30;;;-1.90;1.00;;;;;;5108921;27;20752;-75
2022/11/19 06:03:25;;;;;;;12.18;7.82;;;-1.80;1.00;;;;;;5106985;28;20273;-75
2022/11/19 06:05:52;;;;;;;15.13;8.77;;;-1.90;1.00;;;;;;5107873;28;20223;-75
2022/11/19 06:08:19;;;;;;;13.95;8.57;;;-1.90;1.00;;;;;;5108068;27;20503;-75
2022/11/19 06:10:47;;;;;;;13.35;8.32;;;-2.00;1.00;;;;;;5109568;27;20793;-76
2022/11/19 06:13:14;;;;;;;16.83;8.43;;;-2.10;1.00;;;;;;5106537;27;20242;-76
2022/11/19 06:15:43;;;;;;;14.60;8.77;;;-2.20;1.00;;;;;;5107207;27;20245;-78
2022/11/19 06:18:10;;;;;;;16.48;9.05;;;-2.30;1.00;;;;;;5103901;27;21043;-78
2022/11/19 06:20:36;;;;;;;12.80;7.85;;;-2.30;1.00;;;;;;5101580;27;20262;-78
2022/11/19 06:23:03;;;;;;;13.65;8.45;;;-2.30;1.00;;;;;;5106681;27;20255;-78
2022/11/19 06:25:31;;;;;;;15.38;8.73;;;-2.30;1.00;;;;;;5115374;27;20231;-78
2022/11/19 06:28:00;;;;;;;16.88;9.20;;;-2.30;1.00;;;;;;5108333;28;20236;-78
2022/11/19 06:30:29;;;;;;;15.88;8.02;;;-2.40;1.00;;;;;;5114491;27;20239;-77
2022/11/19 06:32:58;;;;;;;13.00;7.45;;;-2.30;1.00;;;;;;5112300;27;20234;-77
2022/11/19 06:35:26;;;;;;;13.90;7.63;;;-2.30;1.00;;;;;;5109712;27;20238;-77
2022/11/19 06:37:53;;;;;;;12.70;6.82;;;-2.20;1.00;;;;;;5111583;28;20290;-77
2022/11/19 06:40:20;;;;;;;11.30;6.72;;;-2.20;1.00;;;;;;5108183;27;20793;-75
2022/11/19 06:42:47;;;;;;;13.50;7.50;;;-2.10;1.00;;;;;;5107484;28;20326;-76
2022/11/19 06:45:14;;;;;;;14.65;7.30;;;-2.00;1.00;;;;;;5101394;27;20934;-79
2022/11/19 06:47:42;;;;;;;14.85;7.55;;;-1.90;1.00;;;;;;5107417;27;20238;-76
2022/11/19 06:50:11;;;;;;;12.05;7.60;;;-1.80;1.00;;;;;;5104172;27;20379;-78
2022/11/19 06:52:38;;;;;;;16.40;7.47;;;-1.70;1.00;;;;;;5108734;27;20231;-77
2022/11/19 06:55:06;;;;;;;13.40;7.45;;;-1.70;1.00;;;;;;5109167;27;21115;-77
2022/11/19 06:57:33;;;;;;;12.95;7.15;;;-1.70;1.00;;;;;;5108799;27;20231;-79
2022/11/19 07:00:00;;;;;;;13.05;6.93;;;-1.60;1.00;;;;;;5105954;27;21143;-79
2022/11/19 07:02:33;;;;;;;14.73;6.95;;;-1.50;1.00;;;;;;5098618;27;20243;-79
2022/11/19 07:05:00;;;;;;;11.45;6.78;;;-1.50;1.00;;;;;;5114241;27;21063;-85
2022/11/19 07:07:29;;;;;;;13.23;6.78;;;-1.50;1.00;;;;;;5114112;27;20240;-84
2022/11/19 07:09:56;;;;;;;11.63;6.53;;;-1.40;1.00;;;;;;5110385;27;20235;-83
2022/11/19 07:12:23;;;;;;;12.05;7.05;;;-1.30;1.00;;;;;;5111578;28;20238;-85
2022/11/19 07:14:51;;;;;;;11.57;6.55;;;-1.30;1.00;;;;;;5119486;27;20231;-84
2022/11/19 07:17:19;;;;;;;11.88;6.30;;;-1.10;1.00;;;;;;5113788;27;20237;-85
2022/11/19 07:19:51;;;;;;;10.75;6.03;;;-1.00;1.00;;;;;;5114970;27;20251;-83
2022/11/19 07:22:18;;;;;;;10.93;6.68;;;-0.90;1.00;;;;;;5122521;27;20249;-88
2022/11/19 07:24:46;;;;;;;12.75;6.90;;;-0.80;1.00;;;;;;5112118;27;20231;-79
2022/11/19 07:27:26;;;;;;;10.35;6.43;;;-0.80;1.00;;;;;;5119811;27;20673;-79
2022/11/19 07:30:03;;;;;;;13.18;7.97;;;-0.80;1.00;;;;;;5079831;28;20234;-78
2022/11/19 07:32:30;;;;;;;12.00;7.10;;;-0.60;1.00;;;;;;5081858;27;20258;-80
2022/11/19 07:34:57;;;;;;;13.65;6.10;;;-0.60;1.00;;;;;;5113570;27;21120;-78
2022/11/19 07:37:25;;;;;;;11.30;7.85;;;-0.50;1.00;;;;;;5100321;27;20813;-78
2022/11/19 07:39:54;;;;;;;11.07;6.22;;;-0.40;1.00;;;;;;5098489;27;20277;-80
2022/11/19 07:45:07;;;;;;;11.68;6.88;;;-0.30;1.00;;;;;;5092712;27;20236;-80
2022/11/19 07:47:36;;;;;;;11.95;6.28;;;-0.40;1.00;;;;;;5101596;28;20242;-78
2022/11/19 07:50:03;;;;;;;12.18;6.82;;;-0.20;1.00;;;;;;5088427;28;20260;-77
2022/11/19 07:52:31;;;;;;;12.48;6.40;;;-0.10;1.00;;;;;;5114796;27;20997;-89
2022/11/19 07:54:59;;;;;;;14.40;7.28;;;0.00;1.00;;;;;;5115353;27;20219;-88
2022/11/19 07:57:26;;;;;;;17.67;7.47;;;0.10;1.00;;;;;;5114418;27;20224;-88
2022/11/19 07:59:53;;;;;;;11.93;7.28;;;0.30;1.00;;;;;;5105916;27;21084;-84
2022/11/19 08:02:24;;;;;;;11.13;6.57;;;0.50;1.00;;;;;;5118073;27;20239;-84
2022/11/19 08:04:51;;;;;;;11.63;6.20;;;0.70;1.00;;;;;;5103069;27;20945;-87
2022/11/19 08:07:18;;;;;;;11.65;6.43;;;0.90;1.00;;;;;;5104157;27;20871;-82
2022/11/19 08:09:46;;;;;;;11.48;6.20;;;1.10;1.00;;;;;;5104979;27;21486;-85
2022/11/19 08:12:16;;;;;;;13.48;7.57;;;1.20;1.00;;;;;;5094810;28;20293;-85
2022/11/19 08:14:55;;;;;;;11.32;6.90;;;1.30;1.00;;;;;;5084327;27;20234;-84
2022/11/19 08:20:21;;;;;;;11.77;7.15;;;1.30;1.00;;;;;;5083178;27;20243;-79
2022/11/19 08:22:48;;;;;;;13.13;7.68;;;1.20;1.00;;;;;;5109065;27;20304;-81
2022/11/19 08:25:15;;;;;;;53.45;33.53;;;1.30;1.00;;;;;;5112850;27;20339;-80
2022/11/19 08:27:43;;;;;;;13.68;6.72;;;1.20;1.00;;;;;;5110122;27;20239;-78
2022/11/19 08:30:11;;;;;;;11.85;6.07;;;1.20;1.00;;;;;;5111562;27;20239;-78
2022/11/19 08:32:39;;;;;;;11.68;6.95;;;1.20;1.00;;;;;;5113491;27;21034;-79
2022/11/19 08:35:11;;;;;;;11.50;6.18;;;1.20;1.00;;;;;;5121979;27;20236;-82
2022/11/19 08:37:41;;;;;;;11.10;6.43;;;1.10;1.00;;;;;;5103123;27;20241;-81
2022/11/19 08:40:34;;;;;;;13.02;7.22;;;1.20;1.00;;;;;;5111623;27;20215;-81
2022/11/19 08:43:04;;;;;;;13.88;6.75;;;1.20;1.00;;;;;;5108695;27;20246;-80
2022/11/19 08:45:33;;;;;;;12.55;6.78;;;1.40;1.00;;;;;;5108277;27;20235;-79
2022/11/19 08:48:12;;;;;;;11.60;6.70;;;1.60;1.00;;;;;;5103486;27;20228;-81
2022/11/19 08:50:43;;;;;;;15.32;6.78;;;1.80;1.00;;;;;;5109432;27;20235;-81
2022/11/19 08:53:12;;;;;;;10.02;5.88;;;1.80;1.00;;;;;;5118355;27;20295;-79
2022/11/19 08:55:39;;;;;;;13.07;6.40;;;1.90;1.00;;;;;;5108851;27;20997;-79
2022/11/19 08:58:08;;;;;;;12.45;6.00;;;2.00;1.00;;;;;;5112845;27;20234;-80
2022/11/19 09:00:36;;;;;;;10.20;6.30;;;2.00;1.00;;;;;;5108239;27;20267;-78
2022/11/19 09:03:05;;;;;;;9.30;5.35;;;2.10;1.00;;;;;;5101387;27;20238;-78
2022/11/19 09:05:32;;;;;;;15.82;14.15;;;2.20;1.00;;;;;;5103851;27;20739;-78
2022/11/19 09:07:59;;;;;;;11.38;6.72;;;2.30;1.00;;;;;;5108085;27;20232;-78
2022/11/19 09:10:26;;;;;;;11.00;6.00;;;2.40;1.00;;;;;;5095846;27;20236;-79
2022/11/19 09:12:55;;;;;;;12.32;6.10;;;2.50;1.00;;;;;;5115617;27;21107;-82
2022/11/19 09:15:23;;;;;;;10.68;6.00;;;2.60;1.00;;;;;;5113438;27;20307;-82
2022/11/19 09:17:50;;;;;;;11.30;6.00;;;2.60;1.00;;;;;;5109446;27;20235;-83
2022/11/19 09:20:17;;;;;;;8.60;4.85;;;2.70;1.00;;;;;;5093803;27;20969;-81
2022/11/19 09:22:44;;;;;;;10.38;5.88;;;2.60;1.00;;;;;;5113953;27;20240;-81
2022/11/19 09:25:11;;;;;;;9.02;4.93;;;2.40;1.00;;;;;;5117703;27;20481;-81
2022/11/19 09:27:38;;;;;;;8.85;5.43;;;2.30;1.00;;;;;;5125466;27;20983;-81
2022/11/19 09:30:09;;;;;;;10.05;6.85;;;2.30;1.00;;;;;;5121141;27;20235;-81
2022/11/19 09:32:37;;;;;;;11.05;5.50;;;2.30;1.00;;;;;;5123432;27;20239;-82
2022/11/19 09:35:05;;;;;;;9.60;5.45;;;2.30;1.00;;;;;;5118559;27;20744;-82
2022/11/19 09:37:32;;;;;;;9.63;5.35;;;2.30;1.00;;;;;;5118813;27;20315;-83
2022/11/19 09:40:00;;;;;;;9.30;4.60;;;2.30;1.00;;;;;;5116725;27;20231;-84
2022/11/19 09:42:35;;;;;;;10.27;4.97;;;2.30;1.00;;;;;;5110475;27;20228;-84
2022/11/19 09:45:19;;;;;;;13.70;4.35;;;2.30;1.00;;;;;;5109089;28;20340;-80
2022/11/19 09:47:58;;;;;;;8.50;4.90;;;2.20;1.00;;;;;;5115557;27;20227;-82
2022/11/19 09:50:28;;;;;;;10.05;5.00;;;2.30;1.00;;;;;;5110313;27;20311;-83
2022/11/19 09:53:06;;;;;;;9.20;4.25;;;2.50;1.00;;;;;;5121655;27;20909;-83
2022/11/19 09:55:42;;;;;;;7.88;4.32;;;2.70;1.00;;;;;;5121144;27;20231;-79
2022/11/19 09:58:23;;;;;;;7.63;3.92;;;2.90;1.00;;;;;;5124377;27;20235;-79
2022/11/19 10:00:51;;;;;;;7.90;4.22;;;2.80;1.00;;;;;;5121549;27;20299;-82
2022/11/19 10:03:25;;;;;;;8.15;3.70;;;2.70;1.00;;;;;;5116761;28;20243;-81
2022/11/19 10:06:22;;;;;;;8.55;4.20;;;2.60;1.00;;;;;;5121064;27;20256;-84
2022/11/19 10:09:22;;;;;;;8.45;3.70;;;2.60;1.00;;;;;;5119075;27;20290;-82
2022/11/19 10:12:06;;;;;;;7.80;3.47;;;2.60;1.00;;;;;;5109456;27;20294;-81
2022/11/19 10:15:00;;;;;;;11.80;3.80;;;2.50;1.00;;;;;;5122062;27;20223;-83
2022/11/19 10:17:41;;;;;;;28.90;15.95;;;2.50;1.00;;;;;;5124947;27;20342;-82
2022/11/19 10:20:27;;;;;;;9.27;4.45;;;2.50;1.00;;;;;;5117083;27;20249;-79
2022/11/19 10:23:03;;;;;;;8.68;3.80;;;2.60;1.00;;;;;;5123581;27;20227;-82
2022/11/19 10:25:42;;;;;;;8.32;4.05;;;2.70;1.00;;;;;;5128844;27;20945;-80
2022/11/19 10:28:13;;;;;;;7.18;3.03;;;2.70;1.00;;;;;;5121128;27;20228;-77
2022/11/19 10:30:48;;;;;;;9.35;3.40;;;2.70;1.00;;;;;;5124862;27;20220;-81
2022/11/19 10:33:27;;;;;;;9.32;3.83;;;2.70;1.00;;;;;;5116729;27;20238;-81
2022/11/19 10:36:04;;;;;;;7.25;3.33;;;2.60;1.00;;;;;;5121232;27;20266;-81
2022/11/19 10:38:40;;;;;;;8.65;3.40;;;2.70;1.00;;;;;;5115461;27;20247;-81
2022/11/19 10:41:20;;;;;;;9.05;3.67;;;2.80;1.00;;;;;;5111681;28;20293;-83
2022/11/19 10:43:51;;;;;;;8.10;3.78;;;2.70;1.00;;;;;;5122536;27;20246;-84
2022/11/19 10:46:25;;;;;;;9.55;3.60;;;2.90;1.00;;;;;;5117009;27;20240;-78
2022/11/19 10:49:02;;;;;;;8.68;3.00;;;3.10;1.00;;;;;;5114929;27;20224;-84
2022/11/19 10:51:41;;;;;;;8.52;3.25;;;3.30;1.00;;;;;;5111595;28;20230;-81
2022/11/19 10:54:26;;;;;;;7.70;3.60;;;3.60;1.00;;;;;;5115020;28;20265;-81
2022/11/19 10:57:00;;;;;;;6.82;3.50;;;3.90;1.00;;;;;;5114699;28;21007;-82
2022/11/19 10:59:29;;;;;;;7.55;3.50;;;4.00;1.00;;;;;;5118930;27;21182;-84
2022/11/19 11:02:21;;;;;;;8.95;3.22;;;4.00;1.00;;;;;;5121410;27;20216;-83
2022/11/19 11:05:06;;;;;;;8.30;3.60;;;4.20;1.00;;;;;;5119160;28;20232;-82
2022/11/19 11:07:49;;;;;;;7.97;3.22;;;4.40;1.00;;;;;;5110973;27;20250;-84
2022/11/19 11:10:43;;;;;;;10.43;4.35;;;4.50;1.00;;;;;;5114627;27;20407;-81
2022/11/19 11:16:25;;;;;;;12.02;5.15;;;5.00;1.00;;;;;;5107035;27;20233;-81
2022/11/19 11:18:54;;;;;;;9.05;4.00;;;4.90;1.00;;;;;;5116232;27;20236;-83
2022/11/19 11:21:32;;;;;;;9.27;3.90;;;4.90;1.00;;;;;;5102712;27;20248;-80
2022/11/19 11:24:07;;;;;;;7.72;3.65;;;4.70;1.00;;;;;;5107644;27;20223;-81
2022/11/19 11:26:40;;;;;;;10.90;5.50;;;4.80;1.00;;;;;;5112974;27;20240;-82
2022/11/19 11:29:25;;;;;;;6.78;3.55;;;5.00;1.00;;;;;;5117661;27;20789;-82
2022/11/19 11:31:52;;;;;;;9.30;4.70;;;4.90;1.00;;;;;;5115178;28;20241;-81
2022/11/19 11:34:30;;;;;;;7.72;4.25;;;4.90;1.00;;;;;;5128795;27;20220;-84
2022/11/19 11:37:04;;;;;;;9.88;4.40;;;5.00;1.00;;;;;;5112758;28;20216;-82
2022/11/19 11:39:43;;;;;;;7.78;4.15;;;5.00;1.00;;;;;;5115360;27;20272;-83
2022/11/19 11:42:11;;;;;;;9.45;4.95;;;4.90;1.00;;;;;;5116642;27;20233;-80
2022/11/19 11:44:51;;;;;;;11.55;5.38;;;4.60;1.00;;;;;;5118525;27;20227;-84
2022/11/19 11:47:26;;;;;;;8.90;4.80;;;4.30;1.00;;;;;;5117765;27;20235;-78
2022/11/19 11:50:08;;;;;;;9.05;4.70;;;4.40;1.00;;;;;;5114216;28;20286;-82
2022/11/19 11:52:43;;;;;;;10.05;4.82;;;4.80;1.00;;;;;;5125347;27;20235;-81
2022/11/19 11:55:30;;;;;;;11.00;5.18;;;5.90;1.00;;;;;;5117786;27;20235;-84
2022/11/19 11:58:03;;;;;;;9.35;5.03;;;7.90;1.00;;;;;;5112980;27;20263;-77
2022/11/19 12:00:33;;;;;;;10.35;5.50;;;9.60;1.00;;;;;;5122190;28;20247;-84
2022/11/19 12:03:03;;;;;;;11.48;5.50;;;10.30;1.00;;;;;;5116987;27;20234;-82
2022/11/19 12:05:53;;;;;;;11.02;5.53;;;10.40;1.00;;;;;;5120590;27;20235;-81
2022/11/19 12:08:49;;;;;;;9.45;5.32;;;10.00;1.00;;;;;;5124021;27;20237;-85
2022/11/19 12:11:52;;;;;;;10.20;5.45;;;9.80;1.00;;;;;;5123603;27;20237;-83
2022/11/19 12:14:23;;;;;;;8.48;4.32;;;9.70;1.00;;;;;;5121352;27;20229;-83
2022/11/19 12:17:07;;;;;;;10.63;5.50;;;9.30;1.00;;;;;;5118607;27;20229;-79
2022/11/19 12:20:08;;;;;;;8.90;4.70;;;9.00;1.00;;;;;;5117599;27;20242;-83
2022/11/19 12:22:48;;;;;;;11.05;5.65;;;9.10;1.00;;;;;;5077935;27;20254;-83
2022/11/19 12:25:33;;;;;;;11.20;5.63;;;8.60;1.00;;;;;;5111243;27;20245;-83
2022/11/19 12:28:31;;;;;;;11.45;5.80;;;8.00;1.00;;;;;;5108799;27;20225;-79
2022/11/19 12:31:12;;;;;;;8.68;4.97;;;7.20;1.00;;;;;;5112942;28;20266;-78
2022/11/19 12:34:24;;;;;;;9.50;5.07;;;6.60;1.00;;;;;;5115535;27;20228;-82
2022/11/19 12:37:07;;;;;;;9.75;6.40;;;6.00;1.00;;;;;;5118024;27;20293;-80
2022/11/19 12:39:45;;;;;;;9.25;5.30;;;5.70;1.00;;;;;;5112791;27;20244;-78
2022/11/19 12:42:32;;;;;;;10.02;6.07;;;5.30;1.00;;;;;;5129202;27;20268;-84
2022/11/19 12:45:18;;;;;;;11.80;6.30;;;5.00;1.00;;;;;;5119580;28;20241;-81
2022/11/19 12:48:09;;;;;;;11.02;6.25;;;4.90;1.00;;;;;;5120924;27;20674;-82
2022/11/19 12:50:50;;;;;;;10.48;5.57;;;4.70;1.00;;;;;;5116753;27;20240;-82
2022/11/19 12:53:30;;;;;;;11.07;6.10;;;4.60;1.00;;;;;;5122457;27;20239;-77
2022/11/19 12:56:14;;;;;;;11.23;6.13;;;4.40;1.00;;;;;;5119408;27;20267;-82
2022/11/19 12:58:51;;;;;;;11.90;5.95;;;4.30;1.00;;;;;;5115268;27;20237;-79
2022/11/19 13:01:26;;;;;;;12.30;6.60;;;4.20;1.00;;;;;;5116228;27;20259;-83
2022/11/19 13:04:05;;;;;;;11.15;6.85;;;4.10;1.00;;;;;;5124128;27;20237;-84
2022/11/19 13:06:41;;;;;;;10.90;6.00;;;3.90;1.00;;;;;;5123483;27;20354;-80
2022/11/19 13:09:20;;;;;;;11.77;7.15;;;3.70;1.00;;;;;;5111316;28;20341;-81
2022/11/19 13:11:53;;;;;;;12.98;6.68;;;3.60;1.00;;;;;;5130989;27;20232;-81
2022/11/19 13:14:30;;;;;;;11.52;5.75;;;3.60;1.00;;;;;;5132668;28;20235;-80
2022/11/19 13:17:06;;;;;;;11.60;6.80;;;3.50;1.00;;;;;;5123141;28;20229;-83
2022/11/19 13:19:40;;;;;;;13.13;6.50;;;3.50;1.00;;;;;;5116124;27;20243;-79
2022/11/19 13:22:17;;;;;;;11.90;7.20;;;3.60;1.00;;;;;;5122821;27;21041;-80
2022/11/19 13:24:51;;;;;;;12.45;6.82;;;3.70;1.00;;;;;;5105979;28;20379;-77
2022/11/19 13:27:25;;;;;;;11.40;5.70;;;3.60;1.00;;;;;;5094820;28;20367;-82
2022/11/19 13:30:01;;;;;;;11.82;6.90;;;3.60;1.00;;;;;;5073125;28;20225;-80
2022/11/19 13:32:41;;;;;;;12.60;6.78;;;3.50;1.00;;;;;;5089716;28;20247;-80
2022/11/19 13:35:23;;;;;;;13.02;6.90;;;3.50;1.00;;;;;;5090188;28;20241;-81
2022/11/19 13:38:07;;;;;;;11.93;6.60;;;3.40;1.00;;;;;;5089676;28;20233;-76
2022/11/19 13:40:41;;;;;;;11.68;6.40;;;3.40;1.00;;;;;;5078673;28;20243;-82
2022/11/19 13:46:05;;;;;;;11.82;6.68;;;3.20;1.00;;;;;;5098301;28;20457;-82
2022/11/19 13:48:42;;;;;;;11.13;6.68;;;3.30;1.00;;;;;;5104745;28;20248;-84
2022/11/19 13:51:26;;;;;;;11.55;6.88;;;3.30;1.00;;;;;;5107258;28;20231;-82
2022/11/19 13:54:00;;;;;;;12.13;6.78;;;3.20;1.00;;;;;;5102396;28;21115;-81